sensor_id;sensor_type;location;lat;lon;timestamp;P1;durP1;ratioP1;P2;durP2;ratioP2
42092;SDS011;28974;50.316;18.960;2023-08-06T00:00:27;89.63;;;33.97;;
42092;SDS011;28974;50.316;18.960;2023-08-06T00:12:28;77.40;;;34.13;;
42092;SDS011;28974;50.316;18.960;2023-08-06T00:24:31;87.95;;;34.10;;
42092;SDS011;28974;50.316;18.960;2023-08-06T00:36:31;74.47;;;31.73;;
42092;SDS011;28974;50.316;18.960;2023-08-06T00:48:32;64.47;;;28.88;;
42092;SDS011;28974;50.316;18.960;2023-08-06T01:00:37;50.20;;;23.77;;
42092;SDS011;28974;50.316;18.960;2023-08-06T01:25:02;47.20;;;23.70;;
42092;SDS011;28974;50.316;18.960;2023-08-06T01:37:02;52.60;;;21.88;;
42092;SDS011;28974;50.316;18.960;2023-08-06T01:49:03;50.30;;;21.70;;
42092;SDS011;28974;50.316;18.960;2023-08-06T02:01:03;44.00;;;19.10;;
42092;SDS011;28974;50.316;18.960;2023-08-06T02:13:03;38.50;;;21.35;;
42092;SDS011;28974;50.316;18.960;2023-08-06T02:25:04;49.08;;;30.73;;
42092;SDS011;28974;50.316;18.960;2023-08-06T02:37:04;34.47;;;22.30;;
42092;SDS011;28974;50.316;18.960;2023-08-06T02:49:05;58.75;;;35.75;;
42092;SDS011;28974;50.316;18.960;2023-08-06T03:01:06;30.58;;;17.88;;
42092;SDS011;28974;50.316;18.960;2023-08-06T03:13:16;33.10;;;21.60;;
42092;SDS011;28974;50.316;18.960;2023-08-06T03:25:17;50.28;;;35.22;;
42092;SDS011;28974;50.316;18.960;2023-08-06T03:37:21;29.90;;;18.05;;
42092;SDS011;28974;50.316;18.960;2023-08-06T03:49:24;39.40;;;24.25;;
42092;SDS011;28974;50.316;18.960;2023-08-06T04:01:28;54.03;;;26.45;;
42092;SDS011;28974;50.316;18.960;2023-08-06T04:13:28;50.65;;;29.95;;
42092;SDS011;28974;50.316;18.960;2023-08-06T04:25:31;68.28;;;33.55;;
42092;SDS011;28974;50.316;18.960;2023-08-06T04:37:31;62.20;;;31.20;;
42092;SDS011;28974;50.316;18.960;2023-08-06T04:49:32;73.80;;;37.53;;
42092;SDS011;28974;50.316;18.960;2023-08-06T05:01:32;84.82;;;39.55;;
42092;SDS011;28974;50.316;18.960;2023-08-06T05:13:32;96.60;;;37.78;;
42092;SDS011;28974;50.316;18.960;2023-08-06T05:25:36;99.55;;;34.92;;
42092;SDS011;28974;50.316;18.960;2023-08-06T05:37:36;70.00;;;27.55;;
42092;SDS011;28974;50.316;18.960;2023-08-06T05:49:37;11.45;;;5.03;;
42092;SDS011;28974;50.316;18.960;2023-08-06T06:01:37;1.10;;;1.00;;
42092;SDS011;28974;50.316;18.960;2023-08-06T06:13:37;1.73;;;1.23;;
42092;SDS011;28974;50.316;18.960;2023-08-06T06:25:41;2.50;;;1.75;;
42092;SDS011;28974;50.316;18.960;2023-08-06T06:37:42;9.55;;;2.33;;
42092;SDS011;28974;50.316;18.960;2023-08-06T06:49:42;7.13;;;1.90;;
42092;SDS011;28974;50.316;18.960;2023-08-06T07:01:42;8.57;;;1.45;;
42092;SDS011;28974;50.316;18.960;2023-08-06T07:13:43;2.97;;;0.90;;
42092;SDS011;28974;50.316;18.960;2023-08-06T07:25:43;2.00;;;1.30;;
42092;SDS011;28974;50.316;18.960;2023-08-06T07:37:43;2.33;;;0.70;;
42092;SDS011;28974;50.316;18.960;2023-08-06T07:49:43;1.92;;;0.80;;
42092;SDS011;28974;50.316;18.960;2023-08-06T08:01:44;0.82;;;0.65;;
42092;SDS011;28974;50.316;18.960;2023-08-06T08:13:44;1.20;;;0.75;;
42092;SDS011;28974;50.316;18.960;2023-08-06T08:25:44;9.80;;;5.47;;
42092;SDS011;28974;50.316;18.960;2023-08-06T08:37:45;18.88;;;7.97;;
42092;SDS011;28974;50.316;18.960;2023-08-06T08:49:45;15.80;;;10.53;;
42092;SDS011;28974;50.316;18.960;2023-08-06T09:01:49;18.27;;;10.88;;
42092;SDS011;28974;50.316;18.960;2023-08-06T09:13:53;15.27;;;10.40;;
42092;SDS011;28974;50.316;18.960;2023-08-06T09:25:53;16.10;;;11.02;;
42092;SDS011;28974;50.316;18.960;2023-08-06T09:37:54;11.55;;;3.65;;
42092;SDS011;28974;50.316;18.960;2023-08-06T09:49:54;2.40;;;1.60;;
42092;SDS011;28974;50.316;18.960;2023-08-06T10:01:56;6.18;;;4.25;;
42092;SDS011;28974;50.316;18.960;2023-08-06T10:14:02;11.73;;;6.45;;
42092;SDS011;28974;50.316;18.960;2023-08-06T10:26:04;3.83;;;1.80;;
42092;SDS011;28974;50.316;18.960;2023-08-06T10:38:05;2.63;;;1.85;;
42092;SDS011;28974;50.316;18.960;2023-08-06T10:50:11;1.58;;;1.35;;
42092;SDS011;28974;50.316;18.960;2023-08-06T11:02:11;1.30;;;1.20;;
42092;SDS011;28974;50.316;18.960;2023-08-06T11:14:14;8.13;;;2.28;;
42092;SDS011;28974;50.316;18.960;2023-08-06T11:26:18;4.38;;;1.70;;
42092;SDS011;28974;50.316;18.960;2023-08-06T11:38:24;1.70;;;1.53;;
42092;SDS011;28974;50.316;18.960;2023-08-06T11:50:29;2.43;;;0.93;;
42092;SDS011;28974;50.316;18.960;2023-08-06T12:02:33;2.03;;;1.02;;
42092;SDS011;28974;50.316;18.960;2023-08-06T12:14:41;2.25;;;1.33;;
42092;SDS011;28974;50.316;18.960;2023-08-06T12:26:41;1.50;;;1.27;;
42092;SDS011;28974;50.316;18.960;2023-08-06T12:38:41;4.45;;;2.13;;
42092;SDS011;28974;50.316;18.960;2023-08-06T12:50:42;2.22;;;1.63;;
42092;SDS011;28974;50.316;18.960;2023-08-06T13:02:42;0.95;;;0.90;;
42092;SDS011;28974;50.316;18.960;2023-08-06T13:14:42;2.33;;;1.20;;
42092;SDS011;28974;50.316;18.960;2023-08-06T13:26:43;1.30;;;1.02;;
42092;SDS011;28974;50.316;18.960;2023-08-06T13:38:43;1.33;;;0.75;;
42092;SDS011;28974;50.316;18.960;2023-08-06T13:50:43;2.67;;;0.73;;
42092;SDS011;28974;50.316;18.960;2023-08-06T14:02:44;1.80;;;0.88;;
42092;SDS011;28974;50.316;18.960;2023-08-06T14:14:45;0.65;;;0.55;;
42092;SDS011;28974;50.316;18.960;2023-08-06T14:26:45;1.75;;;0.82;;
42092;SDS011;28974;50.316;18.960;2023-08-06T14:38:45;0.75;;;0.75;;
42092;SDS011;28974;50.316;18.960;2023-08-06T14:50:46;1.23;;;0.88;;
42092;SDS011;28974;50.316;18.960;2023-08-06T15:02:46;2.60;;;1.00;;
42092;SDS011;28974;50.316;18.960;2023-08-06T15:14:46;5.90;;;1.38;;
42092;SDS011;28974;50.316;18.960;2023-08-06T15:26:47;3.47;;;1.70;;
42092;SDS011;28974;50.316;18.960;2023-08-06T15:38:47;4.93;;;2.20;;
42092;SDS011;28974;50.316;18.960;2023-08-06T15:50:47;8.15;;;1.65;;
42092;SDS011;28974;50.316;18.960;2023-08-06T16:02:47;2.83;;;1.65;;
42092;SDS011;28974;50.316;18.960;2023-08-06T16:14:51;2.53;;;1.60;;
42092;SDS011;28974;50.316;18.960;2023-08-06T16:26:51;5.38;;;2.58;;
42092;SDS011;28974;50.316;18.960;2023-08-06T16:38:51;11.38;;;2.40;;
42092;SDS011;28974;50.316;18.960;2023-08-06T16:50:55;8.65;;;2.72;;
42092;SDS011;28974;50.316;18.960;2023-08-06T17:02:55;7.50;;;2.58;;
42092;SDS011;28974;50.316;18.960;2023-08-06T17:14:56;6.78;;;1.90;;
42092;SDS011;28974;50.316;18.960;2023-08-06T17:26:59;1.88;;;1.50;;
42092;SDS011;28974;50.316;18.960;2023-08-06T17:38:59;1.70;;;1.38;;
42092;SDS011;28974;50.316;18.960;2023-08-06T17:51:00;2.60;;;1.80;;
42092;SDS011;28974;50.316;18.960;2023-08-06T18:03:02;3.33;;;1.90;;
42092;SDS011;28974;50.316;18.960;2023-08-06T18:15:03;9.10;;;2.00;;
42092;SDS011;28974;50.316;18.960;2023-08-06T18:27:03;2.33;;;1.57;;
42092;SDS011;28974;50.316;18.960;2023-08-06T18:39:03;4.53;;;2.58;;
42092;SDS011;28974;50.316;18.960;2023-08-06T18:51:04;4.45;;;2.33;;
42092;SDS011;28974;50.316;18.960;2023-08-06T19:03:04;1.83;;;1.52;;
42092;SDS011;28974;50.316;18.960;2023-08-06T19:15:08;6.57;;;2.13;;
42092;SDS011;28974;50.316;18.960;2023-08-06T19:27:08;3.13;;;1.83;;
42092;SDS011;28974;50.316;18.960;2023-08-06T19:39:09;3.10;;;1.85;;
42092;SDS011;28974;50.316;18.960;2023-08-06T19:51:09;3.90;;;1.95;;
42092;SDS011;28974;50.316;18.960;2023-08-06T20:03:10;3.05;;;2.70;;
42092;SDS011;28974;50.316;18.960;2023-08-06T20:15:10;5.13;;;2.25;;
42092;SDS011;28974;50.316;18.960;2023-08-06T20:27:10;5.30;;;3.15;;
42092;SDS011;28974;50.316;18.960;2023-08-06T20:39:10;6.97;;;3.20;;
42092;SDS011;28974;50.316;18.960;2023-08-06T20:51:11;8.60;;;2.97;;
42092;SDS011;28974;50.316;18.960;2023-08-06T21:03:11;4.53;;;3.45;;
42092;SDS011;28974;50.316;18.960;2023-08-06T21:15:12;4.60;;;2.95;;
42092;SDS011;28974;50.316;18.960;2023-08-06T21:27:12;4.75;;;3.10;;
42092;SDS011;28974;50.316;18.960;2023-08-06T21:39:16;3.20;;;2.42;;
42092;SDS011;28974;50.316;18.960;2023-08-06T21:51:17;5.80;;;3.10;;
42092;SDS011;28974;50.316;18.960;2023-08-06T22:03:19;4.93;;;4.10;;
42092;SDS011;28974;50.316;18.960;2023-08-06T22:15:19;6.75;;;4.72;;
42092;SDS011;28974;50.316;18.960;2023-08-06T22:27:19;8.40;;;3.60;;
42092;SDS011;28974;50.316;18.960;2023-08-06T22:39:20;5.53;;;2.83;;
42092;SDS011;28974;50.316;18.960;2023-08-06T22:51:21;6.65;;;3.78;;
42092;SDS011;28974;50.316;18.960;2023-08-06T23:03:23;7.65;;;2.75;;
42092;SDS011;28974;50.316;18.960;2023-08-06T23:15:23;6.93;;;3.50;;
42092;SDS011;28974;50.316;18.960;2023-08-06T23:27:23;8.18;;;4.78;;
42092;SDS011;28974;50.316;18.960;2023-08-06T23:39:23;8.10;;;4.35;;
42092;SDS011;28974;50.316;18.960;2023-08-06T23:51:24;12.60;;;5.32;;
